createdAt,value
2022-08-16T00:00:03.244Z,98850.72
2022-08-16T00:00:52.148Z,98853.16
2022-08-16T00:01:40.698Z,98850.97
2022-08-16T00:02:28.260Z,98855.94
2022-08-16T00:03:16.200Z,98860.56
2022-08-16T00:04:05.245Z,98850.41
2022-08-16T00:04:52.520Z,98860.56
2022-08-16T00:05:47.855Z,98858.37
2022-08-16T00:06:36.582Z,98857.56
2022-08-16T00:07:26.316Z,98862.22
2022-08-16T00:08:30.647Z,98865.22
2022-08-16T00:09:24.222Z,98866.34
2022-08-16T00:10:21.009Z,98867.75
2022-08-16T00:11:15.436Z,98859.78
2022-08-16T00:12:04.439Z,98861.97
2022-08-16T00:12:52.539Z,98858.63
2022-08-16T00:13:42.410Z,98866.31
2022-08-16T00:14:32.672Z,98864.09
2022-08-16T00:15:52.086Z,98859.50
2022-08-16T00:17:00.880Z,98862.22
2022-08-16T00:17:57.020Z,98863.91
2022-08-16T00:18:44.361Z,98858.37
2022-08-16T00:19:41.956Z,98859.75
2022-08-16T00:20:29.025Z,98862.53
2022-08-16T00:21:16.802Z,98855.38
2022-08-16T00:22:06.980Z,98853.75
2022-08-16T00:23:00.839Z,98852.63
2022-08-16T00:23:47.691Z,98852.63
2022-08-16T00:24:34.683Z,98854.56
2022-08-16T00:26:33.801Z,98858.13
2022-08-16T00:26:35.652Z,98866.28
2022-08-16T00:27:31.365Z,98864.91
2022-08-16T00:28:18.300Z,98855.34
2022-08-16T00:29:05.161Z,98867.94
2022-08-16T00:30:00.918Z,98869.56
2022-08-16T00:30:56.201Z,98858.06
2022-08-16T00:32:01.103Z,98863.53
2022-08-16T00:32:57.266Z,98859.13
2022-08-16T00:33:50.026Z,98858.47
2022-08-16T00:34:44.885Z,98859.03
2022-08-16T00:35:40.199Z,98864.50
2022-08-16T00:36:27.809Z,98863.97
2022-08-16T00:37:16.778Z,98863.66
2022-08-16T00:38:40.565Z,98858.72
2022-08-16T00:39:15.361Z,98860.34
2022-08-16T00:40:02.798Z,98860.84
2022-08-16T00:40:53.918Z,98856.72
2022-08-16T00:41:42.251Z,98857.03
2022-08-16T00:42:33.445Z,98858.97
2022-08-16T00:43:42.413Z,98860.63
2022-08-16T00:44:32.886Z,98858.41
2022-08-16T00:45:55.467Z,98861.62
2022-08-16T00:47:06.783Z,98868.44
2022-08-16T00:47:55.530Z,98858.28
2022-08-16T00:48:45.656Z,98858.84
2022-08-16T00:49:39.442Z,98864.87
2022-08-16T00:50:36.375Z,98863.44
2022-08-16T00:51:25.752Z,98874.91
2022-08-16T00:52:29.663Z,98865.37
2022-08-16T00:53:18.760Z,98873.03
2022-08-16T00:54:06.486Z,98875.19
2022-08-16T00:54:53.378Z,98883.41
2022-08-16T00:55:43.898Z,98876.88
2022-08-16T00:56:58.504Z,98882.09
2022-08-16T00:57:58.866Z,98883.16
2022-08-16T00:58:46.868Z,98893.88
2022-08-16T00:59:35.881Z,98891.34
2022-08-16T01:00:33.055Z,98883.41
2022-08-16T01:01:20.670Z,98885.84
2022-08-16T01:02:21.843Z,98886.66
2022-08-16T01:03:18.441Z,98883.91
2022-08-16T01:04:29.259Z,98886.38
2022-08-16T01:05:17.974Z,98882.03
2022-08-16T01:06:40.145Z,98881.50
2022-08-16T01:07:17.767Z,98884.62
2022-08-16T01:08:36.420Z,98886.31
2022-08-16T01:09:14.374Z,98886.00
2022-08-16T01:10:16.406Z,98890.13
2022-08-16T01:11:05.460Z,98891.22
2022-08-16T01:11:55.375Z,98889.03
2022-08-16T01:12:43.662Z,98894.22
2022-08-16T01:13:33.030Z,98899.44
2022-08-16T01:14:30.370Z,98904.09
2022-08-16T01:15:17.908Z,98893.97
2022-08-16T01:16:10.168Z,98898.97
2022-08-16T01:16:58.234Z,98890.66
2022-08-16T01:17:47.153Z,98893.66
2022-08-16T01:18:50.592Z,98895.56
2022-08-16T01:19:42.020Z,98900.81
2022-08-16T01:20:30.692Z,98896.94
2022-08-16T01:21:36.441Z,98899.34
2022-08-16T01:22:52.736Z,98901.84
2022-08-16T01:24:53.210Z,98906.50
2022-08-16T01:25:23.526Z,98898.03
2022-08-16T01:26:34.813Z,98904.31
2022-08-16T01:27:26.493Z,98901.38
2022-08-16T01:28:19.664Z,98893.41
2022-08-16T01:29:11.598Z,98899.09
2022-08-16T01:30:19.586Z,98898.75
2022-08-16T01:31:08.559Z,98903.09
2022-08-16T01:31:55.723Z,98898.19
2022-08-16T01:32:42.797Z,98901.13
2022-08-16T01:33:33.494Z,98900.59
2022-08-16T01:34:26.498Z,98906.59
2022-08-16T01:35:30.152Z,98901.13
2022-08-16T01:36:22.278Z,98903.53
2022-08-16T01:37:14.512Z,98907.03
2022-08-16T01:38:19.589Z,98900.22
2022-08-16T01:39:13.163Z,98906.81
2022-08-16T01:40:00.218Z,98902.75
2022-08-16T01:40:49.598Z,98902.75
2022-08-16T01:41:42.117Z,98901.59
2022-08-16T01:42:29.287Z,98898.84
2022-08-16T01:43:17.359Z,98903.13
2022-08-16T01:44:04.523Z,98899.56
2022-08-16T01:44:53.391Z,98901.50
2022-08-16T01:45:41.542Z,98902.56
2022-08-16T01:46:39.523Z,98907.72
2022-08-16T01:47:27.822Z,98905.84
2022-08-16T01:48:20.431Z,98911.78
2022-08-16T01:49:11.264Z,98904.66
2022-08-16T01:50:42.837Z,98906.81
2022-08-16T01:51:16.631Z,98909.25
2022-08-16T01:52:27.691Z,98902.47
2022-08-16T01:53:16.945Z,98904.81
2022-08-16T01:54:04.359Z,98910.50
2022-08-16T01:54:51.569Z,98913.00
2022-08-16T01:55:41.739Z,98910.25
2022-08-16T01:56:29.404Z,98911.63
2022-08-16T01:57:16.174Z,98911.91
2022-08-16T01:58:12.199Z,98900.72
2022-08-16T01:59:01.582Z,98902.59
2022-08-16T01:59:48.498Z,98909.66
2022-08-16T02:00:41.478Z,98911.81
2022-08-16T02:01:32.015Z,98916.13
2022-08-16T02:02:22.200Z,98918.53
2022-08-16T02:03:14.933Z,98922.09
2022-08-16T02:04:10.117Z,98919.09
2022-08-16T02:05:00.404Z,98917.47
2022-08-16T02:05:51.849Z,98921.34
2022-08-16T02:06:45.881Z,98918.53
2022-08-16T02:07:34.319Z,98917.41
2022-08-16T02:08:32.873Z,98915.81
2022-08-16T02:09:23.055Z,98920.00
2022-08-16T02:10:11.207Z,98915.59
2022-08-16T02:10:58.115Z,98923.44
2022-08-16T02:11:48.425Z,98916.72
2022-08-16T02:12:51.257Z,98923.03
2022-08-16T02:13:43.273Z,98913.72
2022-08-16T02:14:30.636Z,98920.78
2022-08-16T02:15:25.494Z,98922.34
2022-08-16T02:16:18.834Z,98921.75
2022-08-16T02:17:08.531Z,98917.72
2022-08-16T02:17:58.131Z,98917.97
2022-08-16T02:18:45.576Z,98921.84
2022-08-16T02:19:58.899Z,98914.72
2022-08-16T02:20:45.519Z,98920.69
2022-08-16T02:21:32.673Z,98915.72
2022-08-16T02:22:35.167Z,98918.97
2022-08-16T02:23:23.997Z,98913.56
2022-08-16T02:24:30.752Z,98917.16
2022-08-16T02:25:17.692Z,98917.44
2022-08-16T02:26:05.595Z,98912.50
2022-08-16T02:26:52.460Z,98908.44
2022-08-16T02:27:41.047Z,98916.38
2022-08-16T02:28:28.540Z,98910.03
2022-08-16T02:29:20.910Z,98914.91
2022-08-16T02:30:35.694Z,98914.91
2022-08-16T02:31:19.307Z,98913.28
2022-08-16T02:32:50.752Z,98913.19
2022-08-16T02:33:15.403Z,98924.06
2022-08-16T02:34:06.463Z,98913.06
2022-08-16T02:34:56.401Z,98918.53
2022-08-16T02:35:54.105Z,98915.50
2022-08-16T02:36:49.931Z,98914.16
2022-08-16T02:37:51.532Z,98912.00
2022-08-16T02:38:41.033Z,98909.75
2022-08-16T02:39:27.941Z,98912.25
2022-08-16T02:40:17.928Z,98907.88
2022-08-16T02:41:07.373Z,98904.44
2022-08-16T02:41:56.708Z,98902.47
2022-08-16T02:42:45.457Z,98897.44
2022-08-16T02:43:36.281Z,98903.91
2022-08-16T02:44:26.885Z,98906.91
2022-08-16T02:45:15.662Z,98910.72
2022-08-16T02:46:07.347Z,98905.59
2022-08-16T02:46:54.438Z,98902.28
2022-08-16T02:48:00.663Z,98899.03
2022-08-16T02:48:49.277Z,98905.16
2022-08-16T02:50:52.290Z,98904.81
2022-08-16T02:50:55.125Z,98903.44
2022-08-16T02:51:50.287Z,98895.47
2022-08-16T02:52:37.166Z,98905.50
2022-08-16T02:53:24.888Z,98905.34
2022-08-16T02:54:16.897Z,98901.13
2022-08-16T02:55:04.133Z,98909.91
2022-08-16T02:55:51.958Z,98912.38
2022-08-16T02:56:38.788Z,98918.66
2022-08-16T02:57:26.969Z,98910.66
2022-08-16T02:58:13.744Z,98910.41
2022-08-16T02:59:01.190Z,98909.56
2022-08-16T02:59:48.000Z,98918.91
2022-08-16T03:00:35.330Z,98911.87
2022-08-16T03:01:36.581Z,98919.72
2022-08-16T03:02:31.780Z,98919.22
2022-08-16T03:03:19.124Z,98922.78
2022-08-16T03:04:40.063Z,98929.81
2022-08-16T03:05:16.368Z,98932.50
2022-08-16T03:06:03.937Z,98931.66
2022-08-16T03:07:11.803Z,98937.44
2022-08-16T03:07:58.760Z,98942.97
2022-08-16T03:08:52.700Z,98941.56
2022-08-16T03:09:40.678Z,98949.75
2022-08-16T03:10:33.730Z,98947.16
2022-08-16T03:11:21.999Z,98954.28
2022-08-16T03:12:08.951Z,98953.94
2022-08-16T03:13:04.318Z,98960.22
2022-08-16T03:13:59.779Z,98966.53
2022-08-16T03:14:47.440Z,98969.50
2022-08-16T03:15:34.446Z,98974.97
2022-08-16T03:16:32.888Z,98982.06
2022-08-16T03:17:32.164Z,98986.87
2022-08-16T03:18:34.753Z,98984.97
2022-08-16T03:19:46.805Z,98988.03
2022-08-16T03:20:34.315Z,98981.25
2022-08-16T03:21:21.934Z,98993.16
2022-08-16T03:22:10.112Z,98988.53
2022-08-16T03:22:57.171Z,98988.81
2022-08-16T03:23:43.890Z,98983.81
2022-08-16T03:24:31.647Z,98983.06
2022-08-16T03:25:18.598Z,98986.94
2022-08-16T03:26:05.639Z,99000.13
2022-08-16T03:26:52.700Z,98987.91
2022-08-16T03:27:41.107Z,98993.22
2022-08-16T03:28:29.771Z,98997.59
2022-08-16T03:29:17.221Z,99002.47
2022-08-16T03:30:16.967Z,99002.47
2022-08-16T03:31:05.019Z,99000.38
2022-08-16T03:31:53.045Z,98997.16
2022-08-16T03:32:40.940Z,98999.38
2022-08-16T03:33:30.438Z,99005.19
2022-08-16T03:34:17.283Z,99003.19
2022-08-16T03:35:05.287Z,99014.16
2022-08-16T03:35:57.208Z,99004.38
2022-08-16T03:36:44.231Z,99006.28
2022-08-16T03:37:31.292Z,99006.84
2022-08-16T03:38:38.431Z,99006.09
2022-08-16T03:39:27.134Z,99010.78
2022-08-16T03:40:30.591Z,99010.53
2022-08-16T03:41:25.486Z,99001.25
2022-08-16T03:42:20.403Z,99007.28
2022-08-16T03:43:19.881Z,99008.09
2022-08-16T03:44:08.885Z,98999.97
2022-08-16T03:45:03.397Z,98997.25
2022-08-16T03:45:53.369Z,98997.81
2022-08-16T03:46:48.448Z,98999.78
2022-08-16T03:47:37.533Z,99007.44
2022-08-16T03:48:37.100Z,99007.19
2022-08-16T03:49:37.059Z,99013.47
2022-08-16T03:50:26.168Z,99003.69
2022-08-16T03:51:13.913Z,99007.00
2022-08-16T03:52:00.839Z,99014.62
2022-08-16T03:52:47.914Z,99006.16
2022-08-16T03:53:37.906Z,99005.66
2022-08-16T03:54:25.138Z,99011.41
2022-08-16T03:55:15.448Z,99006.16
2022-08-16T03:56:02.301Z,99005.16
2022-08-16T03:56:58.010Z,99007.63
2022-08-16T03:57:52.121Z,99004.63
2022-08-16T03:58:39.473Z,99002.16
2022-08-16T03:59:31.676Z,99007.34
2022-08-16T04:00:35.951Z,99005.72
2022-08-16T04:01:29.285Z,99002.22
2022-08-16T04:02:22.393Z,98997.53
2022-08-16T04:03:18.704Z,98993.91
2022-08-16T04:04:05.746Z,98997.66
2022-08-16T04:04:55.538Z,99001.53
2022-08-16T04:05:47.431Z,99000.19
2022-08-16T04:06:34.256Z,99000.75
2022-08-16T04:07:21.370Z,99011.13
2022-08-16T04:08:23.086Z,99007.84
2022-08-16T04:09:12.884Z,99013.59
2022-08-16T04:10:00.223Z,99015.75
2022-08-16T04:11:07.215Z,99025.94
2022-08-16T04:11:54.502Z,99016.59
2022-08-16T04:12:54.316Z,99026.69
2022-08-16T04:14:00.094Z,99025.09
2022-08-16T04:14:49.473Z,99029.22
2022-08-16T04:15:36.380Z,99027.91
2022-08-16T04:16:26.223Z,99033.09
2022-08-16T04:17:15.769Z,99034.78
2022-08-16T04:18:04.815Z,99026.34
2022-08-16T04:18:51.639Z,99028.84
2022-08-16T04:19:39.359Z,99033.75
2022-08-16T04:20:33.917Z,99026.84
2022-08-16T04:21:29.210Z,99029.91
2022-08-16T04:22:17.563Z,99034.31
2022-08-16T04:23:04.797Z,99031.63
2022-08-16T04:23:54.775Z,99034.91
2022-08-16T04:24:41.928Z,99037.97
2022-08-16T04:25:41.396Z,99038.00
2022-08-16T04:26:31.220Z,99038.72
2022-08-16T04:27:19.298Z,99041.22
2022-08-16T04:28:52.143Z,99045.81
2022-08-16T04:29:18.298Z,99038.19
2022-08-16T04:30:13.167Z,99046.16
2022-08-16T04:31:19.515Z,99049.19
2022-08-16T04:32:07.017Z,99043.25
2022-08-16T04:32:55.617Z,99045.19
2022-08-16T04:33:50.967Z,99049.63
2022-08-16T04:34:39.813Z,99048.28
2022-08-16T04:35:27.255Z,99054.34
2022-08-16T04:36:21.435Z,99054.69
2022-08-16T04:37:09.114Z,99048.69
2022-08-16T04:37:55.999Z,99051.47
2022-08-16T04:38:42.842Z,99048.50
2022-08-16T04:39:45.678Z,99053.75
2022-08-16T04:40:34.501Z,99053.50
2022-08-16T04:41:32.953Z,99048.37
2022-08-16T04:42:26.240Z,99050.84
2022-08-16T04:43:17.536Z,99055.53
2022-08-16T04:44:32.412Z,99051.50
2022-08-16T04:45:14.544Z,99058.97
2022-08-16T04:46:05.931Z,99060.97
2022-08-16T04:47:21.688Z,99060.19
2022-08-16T04:48:11.241Z,99056.13
2022-08-16T04:49:09.857Z,99050.94
2022-08-16T04:49:58.143Z,99057.53
2022-08-16T04:50:45.488Z,99052.34
2022-08-16T04:51:36.085Z,99057.06
2022-08-16T04:52:33.174Z,99052.12
2022-08-16T04:53:21.319Z,99053.25
2022-08-16T04:54:09.197Z,99048.59
2022-08-16T04:54:56.456Z,99049.41
2022-08-16T04:55:44.906Z,99049.69
2022-08-16T04:56:31.759Z,99049.13
2022-08-16T04:57:18.628Z,99049.97
2022-08-16T04:58:44.801Z,99049.97
2022-08-16T04:59:13.041Z,99056.31
2022-08-16T05:00:31.658Z,99045.25
2022-08-16T05:01:07.860Z,99059.78
2022-08-16T05:01:58.992Z,99056.41
2022-08-16T05:02:48.822Z,99058.00
2022-08-16T05:04:00.807Z,99053.88
2022-08-16T05:04:48.323Z,99055.22
2022-08-16T05:05:44.807Z,99059.88
2022-08-16T05:06:40.145Z,99061.22
2022-08-16T05:07:31.991Z,99062.31
2022-08-16T05:08:29.503Z,99064.25
2022-08-16T05:09:19.128Z,99057.38
2022-08-16T05:10:19.984Z,99059.50
2022-08-16T05:11:11.286Z,99061.13
2022-08-16T05:11:58.090Z,99062.19
2022-08-16T05:12:45.040Z,99067.94
2022-08-16T05:13:40.811Z,99065.69
2022-08-16T05:14:45.636Z,99074.41
2022-08-16T05:15:34.274Z,99063.44
2022-08-16T05:16:30.020Z,99064.78
2022-08-16T05:17:17.289Z,99066.59
2022-08-16T05:18:04.890Z,99077.63
2022-08-16T05:18:53.199Z,99068.66
2022-08-16T05:19:40.030Z,99070.25
2022-08-16T05:20:38.822Z,99073.25
2022-08-16T05:21:40.655Z,99071.37
2022-08-16T05:22:28.531Z,99062.19
2022-08-16T05:23:17.679Z,99079.84
2022-08-16T05:24:06.983Z,99075.44
2022-08-16T05:24:55.161Z,99080.72
2022-08-16T05:25:48.820Z,99064.31
2022-08-16T05:26:40.978Z,99067.12
2022-08-16T05:27:30.297Z,99067.97
2022-08-16T05:28:17.577Z,99077.78
2022-08-16T05:29:06.900Z,99058.72
2022-08-16T05:30:00.826Z,99069.28
2022-08-16T05:30:51.401Z,99055.97
2022-08-16T05:31:38.330Z,99056.66
2022-08-16T05:32:47.352Z,99052.94
2022-08-16T05:33:34.477Z,99060.25
2022-08-16T05:34:22.727Z,99066.91
2022-08-16T05:35:11.645Z,99064.78
2022-08-16T05:35:58.592Z,99055.41
2022-08-16T05:36:51.250Z,99067.28
2022-08-16T05:37:39.546Z,99062.63
2022-08-16T05:38:32.922Z,99067.50
2022-08-16T05:39:27.318Z,99061.13
2022-08-16T05:40:15.239Z,99066.31
2022-08-16T05:41:03.103Z,99058.09
2022-08-16T05:41:51.703Z,99069.94
2022-08-16T05:42:39.108Z,99061.47
2022-08-16T05:43:26.223Z,99067.88
2022-08-16T05:44:22.965Z,99070.50
2022-08-16T05:45:11.909Z,99068.66
2022-08-16T05:46:28.819Z,99067.75
2022-08-16T05:47:15.832Z,99065.41
2022-08-16T05:48:03.094Z,99069.31
2022-08-16T05:48:55.246Z,99069.31
2022-08-16T05:49:50.529Z,99064.88
2022-08-16T05:50:37.642Z,99068.41
2022-08-16T05:51:39.105Z,99066.44
2022-08-16T05:52:27.884Z,99065.78
2022-08-16T05:53:14.845Z,99062.75
2022-08-16T05:54:01.968Z,99071.53
2022-08-16T05:55:00.990Z,99069.44
2022-08-16T05:55:48.708Z,99074.13
2022-08-16T05:56:37.367Z,99076.31
2022-08-16T05:57:25.112Z,99073.66
2022-08-16T05:58:31.768Z,99072.38
2022-08-16T05:59:19.239Z,99074.22
2022-08-16T06:00:10.345Z,99076.72
2022-08-16T06:00:57.175Z,99087.06
2022-08-16T06:01:45.137Z,99079.72
2022-08-16T06:02:34.251Z,99085.63
2022-08-16T06:03:21.042Z,99088.03
2022-08-16T06:04:13.155Z,99082.44
2022-08-16T06:05:16.611Z,99086.78
2022-08-16T06:06:04.081Z,99081.72
2022-08-16T06:06:56.903Z,99078.59
2022-08-16T06:07:44.279Z,99086.28
2022-08-16T06:08:46.551Z,99082.44
2022-08-16T06:09:43.838Z,99084.28
2022-08-16T06:10:32.080Z,99088.69
2022-08-16T06:11:21.362Z,99091.91
2022-08-16T06:12:27.940Z,99095.31
2022-08-16T06:13:15.527Z,99091.81
2022-08-16T06:14:05.207Z,99091.34
2022-08-16T06:14:52.215Z,99102.31
2022-08-16T06:15:41.920Z,99085.19
2022-08-16T06:16:28.653Z,99085.50
2022-08-16T06:17:18.201Z,99091.72
2022-08-16T06:18:09.133Z,99080.84
2022-08-16T06:18:55.939Z,99083.22
2022-08-16T06:19:45.300Z,99098.47
2022-08-16T06:20:36.043Z,99090.38
2022-08-16T06:21:24.114Z,99088.81
2022-08-16T06:22:10.975Z,99096.97
2022-08-16T06:23:18.263Z,99095.34
2022-08-16T06:24:53.953Z,99094.91
2022-08-16T06:25:15.212Z,99100.72
2022-08-16T06:26:01.982Z,99092.56
2022-08-16T06:26:57.793Z,99104.13
2022-08-16T06:27:57.435Z,99105.06
2022-08-16T06:28:45.561Z,99100.28
2022-08-16T06:29:33.048Z,99104.59
2022-08-16T06:30:20.712Z,99104.47
2022-08-16T06:31:12.308Z,99103.44
2022-08-16T06:32:00.272Z,99107.66
2022-08-16T06:32:48.563Z,99105.25
2022-08-16T06:33:41.656Z,99107.50
2022-08-16T06:34:55.918Z,99112.94
2022-08-16T06:35:41.525Z,99111.88
2022-08-16T06:36:29.420Z,99104.22
2022-08-16T06:37:19.236Z,99118.47
2022-08-16T06:38:06.629Z,99112.88
2022-08-16T06:39:13.777Z,99112.66
2022-08-16T06:40:01.237Z,99107.94
2022-08-16T06:40:51.280Z,99109.78
2022-08-16T06:41:39.681Z,99112.22
2022-08-16T06:42:27.247Z,99109.87
2022-08-16T06:43:14.742Z,99118.69
2022-08-16T06:44:04.283Z,99110.13
2022-08-16T06:44:52.049Z,99113.03
2022-08-16T06:45:43.160Z,99112.59
2022-08-16T06:46:34.468Z,99112.22
2022-08-16T06:47:21.331Z,99116.28
2022-08-16T06:48:10.594Z,99112.47
2022-08-16T06:48:57.518Z,99115.13
2022-08-16T06:49:53.884Z,99113.59
2022-08-16T06:50:41.319Z,99110.66
2022-08-16T06:51:45.278Z,99123.38
2022-08-16T06:52:57.915Z,99112.31
2022-08-16T06:53:43.432Z,99121.34
2022-08-16T06:54:30.339Z,99116.72
2022-08-16T06:55:20.077Z,99117.75
2022-08-16T06:56:14.312Z,99112.44
2022-08-16T06:57:06.795Z,99117.75
2022-08-16T06:58:08.126Z,99117.06
2022-08-16T06:58:55.909Z,99112.47
2022-08-16T06:59:52.261Z,99110.88
2022-08-16T07:00:45.323Z,99114.84
2022-08-16T07:01:44.500Z,99116.91
2022-08-16T07:02:33.998Z,99118.84
2022-08-16T07:03:27.183Z,99120.09
2022-08-16T07:04:32.639Z,99118.13
2022-08-16T07:05:21.175Z,99111.38
2022-08-16T07:06:15.003Z,99117.81
2022-08-16T07:07:03.119Z,99112.28
2022-08-16T07:07:52.386Z,99120.59
2022-08-16T07:08:42.563Z,99126.63
2022-08-16T07:09:29.643Z,99124.41
2022-08-16T07:10:17.553Z,99120.59
2022-08-16T07:11:05.364Z,99128.50
2022-08-16T07:11:52.484Z,99121.69
2022-08-16T07:12:47.131Z,99128.59
2022-08-16T07:14:23.561Z,99127.22
2022-08-16T07:14:53.742Z,99128.47
2022-08-16T07:15:50.156Z,99134.53
2022-08-16T07:16:38.050Z,99130.72
2022-08-16T07:17:24.999Z,99126.22
2022-08-16T07:18:11.912Z,99127.97
2022-08-16T07:19:01.910Z,99131.84
2022-08-16T07:20:03.381Z,99135.25
2022-08-16T07:21:01.745Z,99143.16
2022-08-16T07:21:59.346Z,99133.59
2022-08-16T07:22:58.507Z,99141.06
2022-08-16T07:23:46.544Z,99134.94
2022-08-16T07:24:33.922Z,99127.53
2022-08-16T07:25:33.984Z,99130.00
2022-08-16T07:26:27.356Z,99122.63
2022-08-16T07:27:14.774Z,99123.22
2022-08-16T07:28:02.174Z,99116.56
2022-08-16T07:28:51.684Z,99119.91
2022-08-16T07:29:40.187Z,99125.72
2022-08-16T07:30:39.785Z,99122.81
2022-08-16T07:31:37.475Z,99123.13
2022-08-16T07:32:29.396Z,99124.22
2022-08-16T07:33:52.683Z,99122.38
2022-08-16T07:34:35.043Z,99118.31
2022-08-16T07:35:23.294Z,99114.28
2022-08-16T07:36:10.316Z,99119.72
2022-08-16T07:36:58.821Z,99117.72
2022-08-16T07:37:46.177Z,99117.66
2022-08-16T07:38:33.713Z,99121.88
2022-08-16T07:39:21.152Z,99127.91
2022-08-16T07:40:11.146Z,99123.53
2022-08-16T07:41:01.168Z,99123.34
2022-08-16T07:41:48.472Z,99117.09
2022-08-16T07:42:35.577Z,99127.13
2022-08-16T07:43:23.775Z,99137.63
2022-08-16T07:44:16.748Z,99126.94
2022-08-16T07:45:07.527Z,99130.13
2022-08-16T07:45:57.234Z,99120.25
2022-08-16T07:46:44.361Z,99125.37
2022-08-16T07:47:32.761Z,99123.22
2022-08-16T07:48:19.978Z,99123.63
2022-08-16T07:49:11.371Z,99126.84
2022-08-16T07:49:59.035Z,99124.97
2022-08-16T07:50:55.985Z,99125.97
2022-08-16T07:51:45.783Z,99127.13
2022-08-16T07:52:33.990Z,99118.53
2022-08-16T07:53:21.365Z,99119.56
2022-08-16T07:54:10.747Z,99124.97
2022-08-16T07:54:59.526Z,99118.41
2022-08-16T07:55:48.139Z,99115.41
2022-08-16T07:56:37.275Z,99116.28
2022-08-16T07:57:24.629Z,99120.66
2022-08-16T07:58:18.178Z,99117.91
2022-08-16T07:59:18.782Z,99118.53
2022-08-16T08:00:07.109Z,99123.03
2022-08-16T08:01:10.930Z,99119.69
2022-08-16T08:01:59.576Z,99120.78
2022-08-16T08:02:47.907Z,99117.94
2022-08-16T08:03:44.941Z,99119.53
2022-08-16T08:04:35.397Z,99119.16
2022-08-16T08:05:25.589Z,99110.31
2022-08-16T08:06:25.352Z,99109.69
2022-08-16T08:07:12.515Z,99115.84
2022-08-16T08:07:59.322Z,99114.69
2022-08-16T08:08:49.145Z,99111.91
2022-08-16T08:09:43.356Z,99109.28
2022-08-16T08:10:31.208Z,99111.50
2022-08-16T08:11:18.360Z,99105.91
2022-08-16T08:12:06.297Z,99106.56
2022-08-16T08:12:54.966Z,99113.31
2022-08-16T08:13:43.080Z,99110.28
2022-08-16T08:14:30.441Z,99108.53
2022-08-16T08:15:25.247Z,99117.72
2022-08-16T08:16:18.858Z,99124.47
2022-08-16T08:17:08.675Z,99112.62
2022-08-16T08:17:56.774Z,99123.16
2022-08-16T08:19:05.057Z,99110.13
2022-08-16T08:19:53.282Z,99118.22
2022-08-16T08:20:45.269Z,99105.50
2022-08-16T08:21:59.925Z,99114.41
2022-08-16T08:22:49.857Z,99113.56
2022-08-16T08:23:37.194Z,99113.53
2022-08-16T08:24:32.682Z,99112.28
2022-08-16T08:25:20.738Z,99112.44
2022-08-16T08:26:17.480Z,99109.34
2022-08-16T08:27:05.990Z,99119.63
2022-08-16T08:27:57.611Z,99112.72
2022-08-16T08:28:44.656Z,99110.19
2022-08-16T08:29:37.174Z,99110.28
2022-08-16T08:30:52.051Z,99117.09
2022-08-16T08:31:36.493Z,99115.13
2022-08-16T08:32:57.882Z,99115.69
2022-08-16T08:33:34.618Z,99105.78
2022-08-16T08:34:23.000Z,99113.34
2022-08-16T08:35:11.979Z,99108.31
2022-08-16T08:36:01.724Z,99106.88
2022-08-16T08:36:49.028Z,99123.00
2022-08-16T08:37:55.567Z,99119.88
2022-08-16T08:38:45.765Z,99114.19
2022-08-16T08:39:33.624Z,99116.50
2022-08-16T08:40:24.644Z,99103.66
2022-08-16T08:41:18.608Z,99121.06
2022-08-16T08:42:07.586Z,99108.84
2022-08-16T08:43:12.628Z,99115.47
2022-08-16T08:44:29.291Z,99108.44
2022-08-16T08:45:29.820Z,99108.81
2022-08-16T08:46:21.309Z,99113.75
2022-08-16T08:47:11.601Z,99108.56
2022-08-16T08:47:59.038Z,99118.22
2022-08-16T08:49:02.087Z,99121.78
2022-08-16T08:49:55.171Z,99115.56
2022-08-16T08:50:42.840Z,99111.66
2022-08-16T08:51:38.607Z,99114.28
2022-08-16T08:52:34.217Z,99111.22
2022-08-16T08:53:30.530Z,99110.63
2022-08-16T08:54:18.776Z,99111.69
2022-08-16T08:55:10.865Z,99110.50
2022-08-16T08:55:59.029Z,99106.00
2022-08-16T08:56:46.647Z,99101.16
2022-08-16T08:57:34.865Z,99108.72
2022-08-16T08:58:22.102Z,99099.25
2022-08-16T08:59:13.664Z,99103.66
2022-08-16T09:00:13.784Z,99103.53
2022-08-16T09:01:01.391Z,99104.03
2022-08-16T09:01:57.032Z,99106.31
2022-08-16T09:02:51.895Z,99104.63
2022-08-16T09:03:40.250Z,99093.03
2022-08-16T09:04:28.346Z,99103.19
2022-08-16T09:05:16.707Z,99095.84
2022-08-16T09:06:05.223Z,99096.72
2022-08-16T09:06:55.034Z,99110.63
2022-08-16T09:08:00.707Z,99091.41
2022-08-16T09:08:48.912Z,99093.53
2022-08-16T09:09:41.075Z,99101.87
2022-08-16T09:10:29.800Z,99102.19
2022-08-16T09:11:18.401Z,99103.66
2022-08-16T09:12:07.182Z,99106.44
2022-08-16T09:12:54.106Z,99101.53
2022-08-16T09:13:47.142Z,99099.75
2022-08-16T09:14:50.754Z,99097.12
2022-08-16T09:15:38.961Z,99103.09
2022-08-16T09:17:01.461Z,99097.53
2022-08-16T09:17:49.149Z,99098.22
2022-08-16T09:18:40.073Z,99102.28
2022-08-16T09:19:32.262Z,99101.44
2022-08-16T09:20:20.605Z,99108.16
2022-08-16T09:21:10.977Z,99100.34
2022-08-16T09:21:58.673Z,99107.19
2022-08-16T09:22:51.458Z,99110.97
2022-08-16T09:23:39.738Z,99104.09
2022-08-16T09:24:46.946Z,99104.19
2022-08-16T09:25:35.218Z,99099.78
2022-08-16T09:26:44.723Z,99112.53
2022-08-16T09:27:29.883Z,99102.88
2022-08-16T09:28:38.300Z,99106.63
2022-08-16T09:29:46.295Z,99104.22
2022-08-16T09:30:42.953Z,99100.31
2022-08-16T09:31:31.258Z,99103.09
2022-08-16T09:32:28.581Z,99107.69
2022-08-16T09:33:18.594Z,99099.69
2022-08-16T09:34:07.560Z,99099.69
2022-08-16T09:34:54.322Z,99098.34
2022-08-16T09:35:46.653Z,99100.50
2022-08-16T09:36:45.990Z,99097.06
2022-08-16T09:37:36.274Z,99096.72
2022-08-16T09:38:31.953Z,99098.53
2022-08-16T09:39:19.554Z,99099.69
2022-08-16T09:40:17.992Z,99101.00
2022-08-16T09:41:17.568Z,99094.59
2022-08-16T09:42:04.600Z,99107.22
2022-08-16T09:42:56.436Z,99095.44
2022-08-16T09:44:00.853Z,99098.38
2022-08-16T09:45:10.952Z,99095.44
2022-08-16T09:45:56.440Z,99092.47
2022-08-16T09:46:49.055Z,99091.47
2022-08-16T09:47:57.120Z,99091.63
2022-08-16T09:48:51.684Z,99094.78
2022-08-16T09:49:40.997Z,99097.88
2022-08-16T09:50:33.169Z,99088.84
2022-08-16T09:51:30.755Z,99099.13
2022-08-16T09:52:23.489Z,99097.84
2022-08-16T09:53:17.508Z,99096.56
2022-08-16T09:54:05.873Z,99093.44
2022-08-16T09:54:53.696Z,99094.72
2022-08-16T09:55:44.263Z,99096.22
2022-08-16T09:56:34.035Z,99086.69
2022-08-16T09:57:20.953Z,99090.97
2022-08-16T09:58:10.725Z,99089.31
2022-08-16T09:59:05.415Z,99086.16
2022-08-16T09:59:56.256Z,99088.66
2022-08-16T10:00:45.574Z,99095.00
2022-08-16T10:01:33.429Z,99091.34
2022-08-16T10:02:25.922Z,99092.19
2022-08-16T10:03:14.485Z,99094.72
2022-08-16T10:04:04.646Z,99083.94
2022-08-16T10:04:54.982Z,99087.34
2022-08-16T10:05:42.220Z,99095.66
2022-08-16T10:06:33.729Z,99089.25
2022-08-16T10:07:21.112Z,99095.81
2022-08-16T10:08:26.274Z,99089.44
2022-08-16T10:09:15.401Z,99094.19
2022-08-16T10:10:08.499Z,99093.28
2022-08-16T10:11:23.820Z,99090.12
2022-08-16T10:12:30.094Z,99093.56
2022-08-16T10:13:17.113Z,99090.12
2022-08-16T10:14:04.462Z,99093.63
2022-08-16T10:14:51.364Z,99093.00
2022-08-16T10:15:48.049Z,99086.94
2022-08-16T10:16:48.844Z,99087.25
2022-08-16T10:17:36.425Z,99085.84
2022-08-16T10:18:56.490Z,99086.13
2022-08-16T10:19:32.038Z,99081.09